createdAt,value
2023-04-03T00:00:32.664Z,1.67
2023-04-03T00:01:32.653Z,1.68
2023-04-03T00:02:32.749Z,1.63
2023-04-03T00:03:32.890Z,1.62
2023-04-03T00:04:32.641Z,1.60
2023-04-03T00:05:32.607Z,1.59
2023-04-03T00:06:32.617Z,1.58
2023-04-03T00:07:32.600Z,1.58
2023-04-03T00:08:32.564Z,1.55
2023-04-03T00:09:32.544Z,1.55
2023-04-03T00:10:32.535Z,1.55
2023-04-03T00:11:32.527Z,1.52
2023-04-03T00:12:32.517Z,1.48
2023-04-03T00:13:32.522Z,1.49
2023-04-03T00:14:32.502Z,1.49
2023-04-03T00:15:32.487Z,1.44
2023-04-03T00:16:32.487Z,1.44
2023-04-03T00:17:32.483Z,1.40
2023-04-03T00:18:32.438Z,1.40
2023-04-03T00:19:32.421Z,1.37
2023-04-03T00:20:32.447Z,1.37
2023-04-03T00:21:32.454Z,1.35
2023-04-03T00:22:32.407Z,1.32
2023-04-03T00:23:32.366Z,1.32
2023-04-03T00:24:32.398Z,1.30
2023-04-03T00:25:32.384Z,1.28
2023-04-03T00:26:32.368Z,1.26
2023-04-03T00:27:32.337Z,1.24
2023-04-03T00:28:32.325Z,1.22
2023-04-03T00:29:32.325Z,1.19
2023-04-03T00:30:32.317Z,1.17
2023-04-03T00:31:32.376Z,1.17
2023-04-03T00:32:32.342Z,1.16
2023-04-03T00:33:32.249Z,1.13
2023-04-03T00:34:32.280Z,1.08
2023-04-03T00:35:32.271Z,1.10
2023-04-03T00:36:32.307Z,1.06
2023-04-03T00:37:32.218Z,1.05
2023-04-03T00:38:32.190Z,1.02
2023-04-03T00:39:32.168Z,1.02
2023-04-03T00:40:32.166Z,0.99
2023-04-03T00:41:32.163Z,0.98
2023-04-03T00:42:32.166Z,0.96
2023-04-03T00:43:32.113Z,0.94
2023-04-03T00:44:32.164Z,0.94
2023-04-03T00:45:32.097Z,0.88
2023-04-03T00:46:32.110Z,0.88
2023-04-03T00:47:32.112Z,0.87
2023-04-03T00:48:32.048Z,0.84
2023-04-03T00:49:32.039Z,0.83
2023-04-03T00:50:32.030Z,0.80
2023-04-03T00:51:32.017Z,0.80
2023-04-03T00:52:32.025Z,0.77
2023-04-03T00:53:31.997Z,0.77
2023-04-03T00:54:31.976Z,0.74
2023-04-03T00:55:31.955Z,0.70
2023-04-03T00:56:31.951Z,0.69
2023-04-03T00:57:32.158Z,0.68
2023-04-03T00:58:31.929Z,0.66
2023-04-03T00:59:31.909Z,0.63
2023-04-03T01:00:31.909Z,0.63
2023-04-03T01:01:31.938Z,0.60
2023-04-03T01:02:31.949Z,0.59
2023-04-03T01:03:31.937Z,0.58
2023-04-03T01:04:31.994Z,0.56
2023-04-03T01:05:31.837Z,0.50
2023-04-03T01:06:31.825Z,0.52
2023-04-03T01:07:31.819Z,0.49
2023-04-03T01:08:31.801Z,0.46
2023-04-03T01:09:31.830Z,0.44
2023-04-03T01:10:31.788Z,0.44
2023-04-03T01:11:31.771Z,0.41
2023-04-03T01:12:31.771Z,0.40
2023-04-03T01:13:31.735Z,0.39
2023-04-03T01:14:31.729Z,0.36
2023-04-03T01:15:31.719Z,0.36
2023-04-03T01:16:31.845Z,0.34
2023-04-03T01:17:31.773Z,0.31
2023-04-03T01:18:31.776Z,0.31
2023-04-03T01:19:31.671Z,0.29
2023-04-03T01:20:31.659Z,0.26
2023-04-03T01:21:31.630Z,0.26
2023-04-03T01:22:31.647Z,0.23
2023-04-03T01:23:31.604Z,0.23
2023-04-03T01:24:31.597Z,0.21
2023-04-03T01:25:31.589Z,0.19
2023-04-03T01:26:31.589Z,0.19
2023-04-03T01:27:31.566Z,0.18
2023-04-03T01:28:31.574Z,0.16
2023-04-03T01:29:31.530Z,0.12
2023-04-03T01:30:31.516Z,0.11
2023-04-03T01:31:31.587Z,0.10
2023-04-03T01:32:31.542Z,0.08
2023-04-03T01:33:31.475Z,0.07
2023-04-03T01:34:31.473Z,0.07
2023-04-03T01:35:31.462Z,0.03
2023-04-03T01:36:31.461Z,0.01
2023-04-03T01:37:31.451Z,0.01
2023-04-03T01:38:31.451Z,0.00
2023-04-03T01:39:31.411Z,0.00
2023-04-03T01:40:31.411Z,-0.03
2023-04-03T01:41:31.377Z,-0.03
2023-04-03T01:42:31.393Z,-0.06
2023-04-03T01:43:31.361Z,-0.06
2023-04-03T01:44:31.343Z,-0.10
2023-04-03T01:45:31.352Z,-0.11
2023-04-03T01:46:31.322Z,-0.11
2023-04-03T01:47:31.367Z,-0.13
2023-04-03T01:48:31.307Z,-0.14
2023-04-03T01:49:31.273Z,-0.13
2023-04-03T01:50:31.274Z,-0.15
2023-04-03T01:51:31.269Z,-0.17
2023-04-03T01:52:31.254Z,-0.18
2023-04-03T01:53:31.238Z,-0.18
2023-04-03T01:54:31.236Z,-0.20
2023-04-03T01:55:31.202Z,-0.23
2023-04-03T01:56:31.196Z,-0.23
2023-04-03T01:57:31.330Z,-0.25
2023-04-03T01:58:31.168Z,-0.25
2023-04-03T01:59:31.157Z,-0.26
2023-04-03T02:00:31.148Z,-0.28
2023-04-03T02:01:31.187Z,-0.29
2023-04-03T02:02:31.173Z,-0.28
2023-04-03T02:03:31.118Z,-0.32
2023-04-03T02:04:31.188Z,-0.32
2023-04-03T02:05:31.082Z,-0.32
2023-04-03T02:06:31.073Z,-0.34
2023-04-03T02:07:31.052Z,-0.34
2023-04-03T02:08:31.050Z,-0.35
2023-04-03T02:09:31.019Z,-0.36
2023-04-03T02:10:31.024Z,-0.36
2023-04-03T02:11:31.000Z,-0.38
2023-04-03T02:12:30.992Z,-0.39
2023-04-03T02:13:30.987Z,-0.41
2023-04-03T02:14:30.956Z,-0.41
2023-04-03T02:15:30.950Z,-0.44
2023-04-03T02:16:30.974Z,-0.43
2023-04-03T02:17:30.957Z,-0.44
2023-04-03T02:18:30.927Z,-0.44
2023-04-03T02:19:30.910Z,-0.47
2023-04-03T02:20:30.889Z,-0.46
2023-04-03T02:21:30.868Z,-0.47
2023-04-03T02:22:30.857Z,-0.49
2023-04-03T02:23:30.859Z,-0.50
2023-04-03T02:24:30.841Z,-0.53
2023-04-03T02:25:30.815Z,-0.52
2023-04-03T02:26:30.800Z,-0.53
2023-04-03T02:27:30.794Z,-0.54
2023-04-03T02:28:30.810Z,-0.56
2023-04-03T02:29:30.767Z,-0.54
2023-04-03T02:30:30.771Z,-0.59
2023-04-03T02:31:30.821Z,-0.56
2023-04-03T02:32:30.801Z,-0.57
2023-04-03T02:33:30.729Z,-0.61
2023-04-03T02:34:30.709Z,-0.64
2023-04-03T02:35:30.721Z,-0.62
2023-04-03T02:36:32.988Z,-0.64
2023-04-03T02:37:30.665Z,-0.65
2023-04-03T02:38:30.666Z,-0.65
2023-04-03T02:39:30.641Z,-0.65
2023-04-03T02:40:30.632Z,-0.67
2023-04-03T02:41:30.609Z,-0.68
2023-04-03T02:42:30.618Z,-0.70
2023-04-03T02:43:30.606Z,-0.71
2023-04-03T02:44:30.587Z,-0.74
2023-04-03T02:45:30.573Z,-0.74
2023-04-03T02:46:30.703Z,-0.74
2023-04-03T02:47:30.656Z,-0.75
2023-04-03T02:48:30.549Z,-0.75
2023-04-03T02:49:30.551Z,-0.78
2023-04-03T02:50:30.505Z,-0.80
2023-04-03T02:51:30.484Z,-0.80
2023-04-03T02:52:30.472Z,-0.82
2023-04-03T02:53:30.477Z,-0.83
2023-04-03T02:54:30.460Z,-0.85
2023-04-03T02:55:30.432Z,-0.85
2023-04-03T02:56:30.429Z,-0.89
2023-04-03T02:57:30.504Z,-0.90
2023-04-03T02:58:30.411Z,-0.91
2023-04-03T02:59:30.389Z,-0.90
2023-04-03T03:00:30.422Z,-0.93
2023-04-03T03:01:30.386Z,-0.96
2023-04-03T03:02:30.373Z,-0.96
2023-04-03T03:03:30.342Z,-0.97
2023-04-03T03:04:30.584Z,-0.97
2023-04-03T03:05:30.301Z,-0.97
2023-04-03T03:06:30.352Z,-0.99
2023-04-03T03:07:30.291Z,-1.02
2023-04-03T03:08:30.287Z,-1.02
2023-04-03T03:09:30.268Z,-1.02
2023-04-03T03:10:30.241Z,-1.04
2023-04-03T03:11:30.244Z,-1.05
2023-04-03T03:12:32.005Z,-1.05
2023-04-03T03:13:30.239Z,-1.08
2023-04-03T03:14:30.239Z,-1.08
2023-04-03T03:15:30.237Z,-1.11
2023-04-03T03:16:30.228Z,-1.12
2023-04-03T03:17:30.180Z,-1.12
2023-04-03T03:18:30.173Z,-1.15
2023-04-03T03:19:30.144Z,-1.15
2023-04-03T03:20:30.130Z,-1.14
2023-04-03T03:21:30.112Z,-1.17
2023-04-03T03:22:31.730Z,-1.20
2023-04-03T03:23:30.136Z,-1.19
2023-04-03T03:24:30.071Z,-1.22
2023-04-03T03:25:30.069Z,-1.23
2023-04-03T03:26:30.318Z,-1.22
2023-04-03T03:27:30.022Z,-1.25
2023-04-03T03:28:30.032Z,-1.23
2023-04-03T03:29:30.000Z,-1.25
2023-04-03T03:30:30.009Z,-1.27
2023-04-03T03:31:30.026Z,-1.27
2023-04-03T03:32:30.015Z,-1.29
2023-04-03T03:33:29.967Z,-1.30
2023-04-03T03:34:29.942Z,-1.32
2023-04-03T03:35:29.946Z,-1.32
2023-04-03T03:36:29.915Z,-1.32
2023-04-03T03:37:29.905Z,-1.33
2023-04-03T03:38:29.916Z,-1.32
2023-04-03T03:39:29.885Z,-1.33
2023-04-03T03:40:29.857Z,-1.35
2023-04-03T03:41:29.844Z,-1.37
2023-04-03T03:42:29.845Z,-1.37
2023-04-03T03:43:29.847Z,-1.38
2023-04-03T03:44:29.869Z,-1.41
2023-04-03T03:45:29.806Z,-1.40
2023-04-03T03:46:29.832Z,-1.43
2023-04-03T03:47:29.799Z,-1.44
2023-04-03T03:48:29.796Z,-1.44
2023-04-03T03:49:29.751Z,-1.46
2023-04-03T03:50:29.744Z,-1.46
2023-04-03T03:51:29.720Z,-1.47
2023-04-03T03:52:29.716Z,-1.48
2023-04-03T03:53:29.729Z,-1.50
2023-04-03T03:54:29.696Z,-1.50
2023-04-03T03:55:29.671Z,-1.51
2023-04-03T03:56:29.664Z,-1.51
2023-04-03T03:57:29.798Z,-1.53
2023-04-03T03:58:29.657Z,-1.54
2023-04-03T03:59:29.625Z,-1.54
2023-04-03T04:00:29.642Z,-1.56
2023-04-03T04:01:29.596Z,-1.56
2023-04-03T04:02:29.632Z,-1.59
2023-04-03T04:03:29.670Z,-1.58
2023-04-03T04:04:29.573Z,-1.59
2023-04-03T04:05:29.558Z,-1.59
2023-04-03T04:06:29.545Z,-1.62
2023-04-03T04:07:29.528Z,-1.64
2023-04-03T04:08:29.537Z,-1.65
2023-04-03T04:09:29.502Z,-1.65
2023-04-03T04:10:29.493Z,-1.66
2023-04-03T04:11:29.488Z,-1.68
2023-04-03T04:12:29.464Z,-1.68
2023-04-03T04:13:29.467Z,-1.68
2023-04-03T04:14:29.670Z,-1.69
2023-04-03T04:15:29.427Z,-1.71
2023-04-03T04:16:29.437Z,-1.71
2023-04-03T04:17:29.453Z,-1.72
2023-04-03T04:18:29.412Z,-1.74
2023-04-03T04:19:29.375Z,-1.76
2023-04-03T04:20:29.364Z,-1.76
2023-04-03T04:21:29.356Z,-1.77
2023-04-03T04:22:29.344Z,-1.77
2023-04-03T04:23:29.339Z,-1.80
2023-04-03T04:24:29.315Z,-1.82
2023-04-03T04:25:29.331Z,-1.82
2023-04-03T04:26:29.299Z,-1.84
2023-04-03T04:27:29.278Z,-1.83
2023-04-03T04:28:29.275Z,-1.84
2023-04-03T04:29:29.249Z,-1.87
2023-04-03T04:30:29.227Z,-1.87
2023-04-03T04:31:29.320Z,-1.86
2023-04-03T04:32:29.240Z,-1.87
2023-04-03T04:33:29.221Z,-1.89
2023-04-03T04:34:29.247Z,-1.90
2023-04-03T04:35:29.228Z,-1.92
2023-04-03T04:36:29.213Z,-1.90
2023-04-03T04:37:29.152Z,-1.95
2023-04-03T04:38:29.158Z,-1.92
2023-04-03T04:39:29.143Z,-1.97
2023-04-03T04:40:29.121Z,-1.97
2023-04-03T04:41:29.097Z,-1.98
2023-04-03T04:42:29.103Z,-1.98
2023-04-03T04:43:29.094Z,-1.98
2023-04-03T04:44:29.057Z,-1.98
2023-04-03T04:45:29.051Z,-2.00
2023-04-03T04:46:29.054Z,-1.98
2023-04-03T04:47:29.037Z,-2.00
2023-04-03T04:48:31.375Z,-2.01
2023-04-03T04:49:28.993Z,-1.97
2023-04-03T04:50:28.994Z,-1.95
2023-04-03T04:51:32.870Z,-1.97
2023-04-03T04:52:29.954Z,-1.97
2023-04-03T04:53:28.968Z,-1.95
2023-04-03T04:54:28.928Z,-1.94
2023-04-03T04:55:28.924Z,-1.95
2023-04-03T04:56:28.900Z,-1.92
2023-04-03T04:57:28.956Z,-1.94
2023-04-03T04:58:28.897Z,-1.90
2023-04-03T04:59:28.871Z,-1.90
2023-04-03T05:00:28.870Z,-1.90
2023-04-03T05:01:28.906Z,-1.89
2023-04-03T05:02:28.851Z,-1.87
2023-04-03T05:05:50.571Z,-1.86
2023-04-03T05:06:50.440Z,-1.87
2023-04-03T05:07:50.421Z,-1.87
2023-04-03T05:08:50.433Z,-1.86
2023-04-03T05:09:50.415Z,-1.86
2023-04-03T05:10:50.386Z,-1.86
2023-04-03T05:11:50.386Z,-1.84
2023-04-03T05:12:50.377Z,-1.84
2023-04-03T05:13:50.358Z,-1.84
2023-04-03T05:14:50.352Z,-1.83
2023-04-03T05:15:50.405Z,-1.83
2023-04-03T05:16:51.573Z,-1.82
2023-04-03T05:17:50.326Z,-1.82
2023-04-03T05:18:50.300Z,-1.82
2023-04-03T05:19:50.279Z,-1.79
2023-04-03T05:20:50.268Z,-1.79
2023-04-03T05:21:50.266Z,-1.77
2023-04-03T05:22:50.253Z,-1.74
2023-04-03T05:23:50.230Z,-1.69
2023-04-03T05:24:50.214Z,-1.64
2023-04-03T05:25:50.198Z,-1.56
2023-04-03T05:26:50.194Z,-1.46
2023-04-03T05:27:50.172Z,-1.32
2023-04-03T05:28:50.175Z,-1.19
2023-04-03T05:29:50.156Z,-1.08
2023-04-03T05:30:50.137Z,-0.94
2023-04-03T05:31:50.158Z,-0.78
2023-04-03T05:32:50.124Z,-0.68
2023-04-03T05:33:50.107Z,-0.56
2023-04-03T05:34:50.086Z,-0.43
2023-04-03T05:35:50.129Z,-0.26
2023-04-03T05:36:50.060Z,-0.10
2023-04-03T05:37:50.039Z,0.05
2023-04-03T05:38:50.049Z,0.22
2023-04-03T05:39:50.040Z,0.40
2023-04-03T05:40:50.010Z,0.59
2023-04-03T05:41:49.992Z,0.77
2023-04-03T05:42:49.978Z,0.95
2023-04-03T05:43:49.974Z,1.08
2023-04-03T05:44:49.980Z,1.19
2023-04-03T05:45:49.957Z,1.28
2023-04-03T05:46:49.929Z,1.35
2023-04-03T05:47:49.949Z,1.38
2023-04-03T05:48:49.917Z,1.44
2023-04-03T05:49:49.992Z,1.42
2023-04-03T05:50:49.893Z,1.45
2023-04-03T05:51:49.865Z,1.48
2023-04-03T05:52:49.853Z,1.45
2023-04-03T05:53:49.946Z,1.45
2023-04-03T05:54:49.857Z,1.50
2023-04-03T05:55:49.810Z,1.50
2023-04-03T05:56:49.908Z,1.52
2023-04-03T05:57:49.793Z,1.56
2023-04-03T05:58:49.795Z,1.62
2023-04-03T05:59:49.770Z,1.63
2023-04-03T06:00:49.752Z,1.70
2023-04-03T06:01:49.781Z,1.73
2023-04-03T06:02:49.942Z,1.76
2023-04-03T06:03:49.847Z,1.84
2023-04-03T06:04:49.877Z,1.91
2023-04-03T06:05:49.700Z,1.97
2023-04-03T06:06:49.689Z,2.07
2023-04-03T06:07:49.660Z,2.14
2023-04-03T06:08:49.668Z,2.20
2023-04-03T06:09:49.643Z,2.29
2023-04-03T06:10:49.621Z,2.38
2023-04-03T06:11:49.621Z,2.47
2023-04-03T06:12:49.593Z,2.56
2023-04-03T06:13:49.597Z,2.65
2023-04-03T06:14:49.578Z,2.75
2023-04-03T06:15:49.561Z,2.85
2023-04-03T06:16:49.579Z,2.95
2023-04-03T06:17:49.603Z,3.05
2023-04-03T06:18:49.527Z,3.14
2023-04-03T06:19:49.516Z,3.28
2023-04-03T06:20:49.519Z,3.36
2023-04-03T06:21:49.483Z,3.47
2023-04-03T06:22:49.470Z,3.58
2023-04-03T06:23:49.469Z,3.69
2023-04-03T06:24:49.448Z,3.80
2023-04-03T06:25:49.429Z,3.88
2023-04-03T06:26:49.418Z,4.04
2023-04-03T06:27:49.408Z,4.17
2023-04-03T06:28:49.393Z,4.30
2023-04-03T06:29:49.376Z,4.40
2023-04-03T06:30:49.385Z,4.49
2023-04-03T06:31:49.345Z,4.56
2023-04-03T06:32:49.363Z,4.68
2023-04-03T06:33:49.341Z,4.77
2023-04-03T06:34:49.325Z,4.90
2023-04-03T06:35:49.315Z,4.97
2023-04-03T06:36:49.276Z,5.08
2023-04-03T06:37:49.275Z,5.18
2023-04-03T06:38:49.301Z,5.29
2023-04-03T06:39:49.287Z,5.43
2023-04-03T06:40:49.240Z,5.50
2023-04-03T06:41:49.217Z,5.59
2023-04-03T06:42:49.207Z,5.69
2023-04-03T06:43:49.282Z,5.79
2023-04-03T06:44:49.202Z,5.89
2023-04-03T06:45:49.191Z,6.02
2023-04-03T06:46:49.156Z,6.17
2023-04-03T06:47:49.180Z,6.30
2023-04-03T06:48:49.158Z,6.45
2023-04-03T06:49:49.132Z,6.59
2023-04-03T06:50:49.116Z,6.74
2023-04-03T06:51:49.107Z,6.88
2023-04-03T06:52:49.082Z,7.02
2023-04-03T06:53:49.733Z,7.13
2023-04-03T06:54:49.075Z,7.28
2023-04-03T06:55:49.072Z,7.39
2023-04-03T06:56:49.054Z,7.51
2023-04-03T06:57:49.021Z,7.63
2023-04-03T06:58:49.028Z,7.77
2023-04-03T06:59:48.998Z,7.90
2023-04-03T07:00:48.989Z,8.03
2023-04-03T07:01:49.026Z,8.15
2023-04-03T07:02:48.995Z,8.27
2023-04-03T07:03:48.936Z,8.41
2023-04-03T07:04:48.965Z,8.53
2023-04-03T07:05:48.914Z,8.67
2023-04-03T07:06:48.896Z,8.79
2023-04-03T07:07:48.895Z,8.92
2023-04-03T07:08:48.876Z,9.04
2023-04-03T07:09:48.885Z,9.18
2023-04-03T07:10:48.850Z,9.28
2023-04-03T07:11:48.892Z,9.41
2023-04-03T07:12:48.826Z,9.54
2023-04-03T07:13:48.830Z,9.65
2023-04-03T07:14:48.898Z,9.77
2023-04-03T07:15:48.866Z,9.87
2023-04-03T07:16:48.772Z,10.01
2023-04-03T07:17:49.050Z,10.13
2023-04-03T07:18:48.778Z,10.26
2023-04-03T07:19:48.787Z,10.38
2023-04-03T07:20:48.730Z,10.51
2023-04-03T07:21:48.726Z,10.67
2023-04-03T07:22:48.691Z,10.76
2023-04-03T07:24:48.682Z,11.05
2023-04-03T07:25:48.656Z,11.18
2023-04-03T07:26:48.663Z,11.32
2023-04-03T07:27:48.671Z,11.48
2023-04-03T07:28:48.712Z,11.62
2023-04-03T07:29:48.607Z,11.77
2023-04-03T07:30:48.600Z,11.94
2023-04-03T07:31:48.633Z,12.07
2023-04-03T07:32:49.119Z,12.22
2023-04-03T07:33:48.556Z,12.36
2023-04-03T07:34:48.538Z,12.50
2023-04-03T07:35:48.605Z,12.64
2023-04-03T07:36:48.506Z,12.78
2023-04-03T07:37:48.488Z,12.90
2023-04-03T07:38:48.513Z,13.00
2023-04-03T07:39:48.506Z,13.15
2023-04-03T07:40:48.536Z,13.27
2023-04-03T07:41:48.464Z,13.41
2023-04-03T07:42:48.490Z,13.53
2023-04-03T07:43:48.421Z,13.67
2023-04-03T07:44:48.424Z,13.79
2023-04-03T07:45:48.415Z,13.93
2023-04-03T07:46:48.401Z,14.08
2023-04-03T07:47:48.389Z,14.25
2023-04-03T07:48:48.350Z,14.40
2023-04-03T07:49:48.362Z,14.55
2023-04-03T07:50:48.363Z,14.73
2023-04-03T07:51:48.341Z,14.89
2023-04-03T07:52:48.307Z,15.06
2023-04-03T07:53:48.302Z,15.24
2023-04-03T07:54:51.518Z,15.37
2023-04-03T07:55:48.286Z,15.54
2023-04-03T07:56:48.244Z,15.70
2023-04-03T07:57:48.248Z,15.84
2023-04-03T07:58:48.262Z,16.00
2023-04-03T07:59:48.268Z,16.17
2023-04-03T08:00:48.241Z,16.33
2023-04-03T08:01:48.190Z,16.46
2023-04-03T08:02:48.217Z,16.60
2023-04-03T08:03:48.383Z,16.74
2023-04-03T08:04:48.381Z,16.89
2023-04-03T08:05:55.697Z,17.04
2023-04-03T08:06:48.257Z,17.20
2023-04-03T08:07:48.162Z,17.38
2023-04-03T08:08:48.079Z,17.52
2023-04-03T08:09:48.078Z,17.70
2023-04-03T08:10:48.054Z,17.85
2023-04-03T08:11:48.079Z,17.98
2023-04-03T08:12:48.038Z,18.15
2023-04-03T08:13:48.057Z,18.29
2023-04-03T08:14:48.024Z,18.43
2023-04-03T08:15:48.004Z,18.59
2023-04-03T08:16:48.082Z,18.73
2023-04-03T08:17:48.054Z,18.88
2023-04-03T08:18:47.953Z,18.99
2023-04-03T08:19:47.958Z,19.14
2023-04-03T08:20:47.939Z,19.27
2023-04-03T08:21:47.988Z,19.40
2023-04-03T08:22:47.908Z,19.54
2023-04-03T08:23:47.885Z,19.67
2023-04-03T08:24:58.601Z,19.77
2023-04-03T08:25:48.858Z,19.89
2023-04-03T08:26:47.840Z,19.99
2023-04-03T08:27:47.845Z,20.04
2023-04-03T08:28:47.811Z,20.14
2023-04-03T08:29:47.820Z,20.26
2023-04-03T08:30:47.858Z,20.41
2023-04-03T08:31:47.807Z,20.56
2023-04-03T08:32:47.792Z,20.67
2023-04-03T08:33:47.771Z,20.78
2023-04-03T08:34:47.779Z,20.88
2023-04-03T08:35:47.830Z,20.99
2023-04-03T08:36:47.759Z,21.09
2023-04-03T08:37:47.701Z,21.21
2023-04-03T08:38:47.680Z,21.17
2023-04-03T08:39:47.688Z,21.25
2023-04-03T08:40:47.671Z,21.24
2023-04-03T08:41:47.664Z,21.20
2023-04-03T08:42:47.629Z,21.18
2023-04-03T08:43:47.624Z,21.22
2023-04-03T08:44:47.619Z,21.35
2023-04-03T08:45:47.629Z,21.48
2023-04-03T08:46:47.590Z,21.61
2023-04-03T08:47:47.613Z,21.57
2023-04-03T08:48:47.546Z,21.18
2023-04-03T08:49:47.594Z,20.78
2023-04-03T08:50:47.588Z,20.75
2023-04-03T08:51:47.512Z,20.90
2023-04-03T08:52:47.516Z,21.07
2023-04-03T08:53:47.497Z,20.88
2023-04-03T08:54:47.471Z,20.62
2023-04-03T08:55:47.453Z,20.72
2023-04-03T08:56:47.489Z,20.85
2023-04-03T08:57:47.443Z,20.95
2023-04-03T08:58:47.438Z,20.74
2023-04-03T08:59:47.423Z,20.32
2023-04-03T09:00:47.413Z,20.13
2023-04-03T09:01:47.453Z,20.22
2023-04-03T09:02:48.323Z,20.43
2023-04-03T09:03:47.454Z,20.58
2023-04-03T09:04:47.408Z,20.70
2023-04-03T09:05:47.377Z,20.85
2023-04-03T09:06:47.341Z,20.78
2023-04-03T09:07:49.316Z,20.40
2023-04-03T09:08:47.299Z,19.96
2023-04-03T09:09:47.289Z,19.52
2023-04-03T09:10:47.272Z,19.11
2023-04-03T09:11:47.283Z,19.19
2023-04-03T09:12:47.270Z,19.15
2023-04-03T09:13:47.241Z,19.07
2023-04-03T09:14:47.211Z,19.27
2023-04-03T09:15:47.248Z,19.58
2023-04-03T09:16:47.188Z,19.91
2023-04-03T09:17:47.232Z,20.19
2023-04-03T09:18:47.156Z,20.24
2023-04-03T09:19:47.232Z,20.25
2023-04-03T09:20:47.137Z,20.47
2023-04-03T09:21:47.111Z,20.39
2023-04-03T09:22:52.107Z,20.28
2023-04-03T09:23:48.083Z,20.48
2023-04-03T09:24:47.078Z,20.74
2023-04-03T09:25:47.066Z,20.93
2023-04-03T09:26:47.045Z,20.99
2023-04-03T09:27:47.068Z,20.80
2023-04-03T09:28:50.394Z,20.41
2023-04-03T09:29:47.028Z,20.07
2023-04-03T09:30:46.990Z,19.74
2023-04-03T09:31:47.012Z,19.56
2023-04-03T09:32:46.998Z,19.26
2023-04-03T09:33:46.977Z,18.95
2023-04-03T09:34:46.994Z,18.90
2023-04-03T09:35:48.926Z,18.81
2023-04-03T09:36:46.910Z,18.59
2023-04-03T09:37:46.904Z,18.34
2023-04-03T09:38:47.079Z,18.08
2023-04-03T09:39:46.926Z,18.22
2023-04-03T09:40:46.900Z,18.56
2023-04-03T09:41:46.842Z,18.96
2023-04-03T09:42:51.965Z,19.19
2023-04-03T09:43:47.818Z,19.07
2023-04-03T09:44:46.809Z,18.88
2023-04-03T09:45:46.797Z,18.63
2023-04-03T09:46:46.814Z,18.38
2023-04-03T09:47:46.784Z,18.13
2023-04-03T09:48:48.156Z,17.87
2023-04-03T09:49:46.793Z,17.64
2023-04-03T09:50:46.785Z,17.41
2023-04-03T09:51:46.706Z,17.19
2023-04-03T09:52:46.695Z,16.96
2023-04-03T09:53:46.775Z,16.75
2023-04-03T09:54:46.674Z,16.57
2023-04-03T09:55:46.700Z,16.41
2023-04-03T09:56:46.656Z,16.24
2023-04-03T09:57:46.694Z,16.10
2023-04-03T09:58:50.377Z,15.97
2023-04-03T09:59:46.618Z,15.83
2023-04-03T10:00:46.639Z,15.70
2023-04-03T10:01:46.595Z,15.57
2023-04-03T10:02:46.604Z,15.44
2023-04-03T10:03:46.607Z,15.31
2023-04-03T10:04:48.960Z,15.21
2023-04-03T10:05:47.543Z,15.07
2023-04-03T10:06:46.583Z,14.97
2023-04-03T10:07:54.482Z,14.86
2023-04-03T10:08:47.482Z,14.72
2023-04-03T10:09:46.503Z,14.63
2023-04-03T10:10:46.502Z,14.53
2023-04-03T10:11:46.444Z,14.44
2023-04-03T10:12:46.436Z,14.33
2023-04-03T10:13:51.026Z,14.26
2023-04-03T10:14:46.459Z,14.18
2023-04-03T10:15:46.424Z,14.12
2023-04-03T10:16:46.421Z,14.04
2023-04-03T10:17:46.381Z,13.95
2023-04-03T10:18:46.380Z,13.90
2023-04-03T10:19:46.335Z,13.86
2023-04-03T10:20:46.347Z,13.83
2023-04-03T10:21:46.329Z,13.78
2023-04-03T10:22:46.302Z,13.74
2023-04-03T10:23:46.301Z,13.68
2023-04-03T10:24:46.282Z,13.67
2023-04-03T10:25:46.284Z,13.60
2023-04-03T10:26:46.261Z,13.57
2023-04-03T10:27:46.228Z,13.53
2023-04-03T10:28:46.214Z,13.50
2023-04-03T10:29:46.201Z,13.46
2023-04-03T10:30:46.239Z,13.41
2023-04-03T10:31:46.187Z,13.60
2023-04-03T10:32:46.204Z,13.87
2023-04-03T10:33:46.144Z,13.92
2023-04-03T10:34:51.641Z,13.90
2023-04-03T10:35:47.186Z,14.04
2023-04-03T10:36:46.115Z,14.03
2023-04-03T10:37:46.098Z,14.14
2023-04-03T10:38:46.084Z,14.43
2023-04-03T10:39:46.074Z,14.45
2023-04-03T10:40:46.073Z,14.41
2023-04-03T10:41:46.042Z,14.37
2023-04-03T10:42:46.075Z,14.36
2023-04-03T10:43:46.027Z,14.30
2023-04-03T10:44:46.026Z,14.25
2023-04-03T10:45:46.020Z,14.17
2023-04-03T10:46:45.982Z,14.26
2023-04-03T10:47:45.991Z,14.60
2023-04-03T10:48:45.952Z,14.86
2023-04-03T10:49:53.481Z,15.22
2023-04-03T10:50:46.936Z,15.61
2023-04-03T10:51:45.977Z,16.02
2023-04-03T10:52:45.913Z,16.24
2023-04-03T10:53:45.881Z,16.28
2023-04-03T10:54:45.882Z,16.21
2023-04-03T10:55:45.913Z,16.23
2023-04-03T10:56:45.847Z,16.20
2023-04-03T10:57:45.927Z,16.36
2023-04-03T10:58:45.851Z,16.43
2023-04-03T10:59:45.848Z,16.38
2023-04-03T11:00:45.854Z,16.32
2023-04-03T11:01:45.868Z,16.42
2023-04-03T11:02:45.831Z,16.28
2023-04-03T11:03:45.869Z,16.15
2023-04-03T11:04:45.771Z,15.97
2023-04-03T11:05:45.760Z,15.82
2023-04-03T11:06:45.725Z,15.65
2023-04-03T11:07:45.703Z,15.49
2023-04-03T11:08:45.712Z,15.36
2023-04-03T11:09:45.686Z,15.21
2023-04-03T11:10:45.669Z,15.09
2023-04-03T11:11:45.653Z,14.96
2023-04-03T11:12:47.053Z,14.82
2023-04-03T11:13:45.633Z,14.69
2023-04-03T11:14:45.664Z,14.60
2023-04-03T11:15:45.631Z,14.51
2023-04-03T11:16:53.276Z,14.43
2023-04-03T11:17:46.692Z,14.35
2023-04-03T11:18:45.556Z,14.30
2023-04-03T11:19:45.574Z,14.25
2023-04-03T11:20:45.562Z,14.23
2023-04-03T11:21:45.533Z,14.18
2023-04-03T11:22:45.554Z,14.15
2023-04-03T11:23:50.058Z,14.12
2023-04-03T11:24:45.488Z,14.08
2023-04-03T11:25:45.957Z,14.15
2023-04-03T11:26:45.459Z,14.28
2023-04-03T11:27:45.518Z,14.44
2023-04-03T11:28:45.476Z,14.48
2023-04-03T11:29:45.568Z,14.45
2023-04-03T11:30:45.717Z,14.43
2023-04-03T11:31:45.446Z,14.47
2023-04-03T11:32:45.405Z,14.58
2023-04-03T11:33:46.062Z,14.63
2023-04-03T11:34:45.527Z,14.69
2023-04-03T11:35:45.708Z,14.73
2023-04-03T11:36:45.650Z,14.84
2023-04-03T11:37:45.362Z,14.89
2023-04-03T11:38:45.315Z,14.99
2023-04-03T11:39:45.276Z,15.06
2023-04-03T11:40:45.287Z,15.17
2023-04-03T11:41:45.351Z,15.25
2023-04-03T11:42:45.360Z,15.36
2023-04-03T11:43:45.230Z,15.47
2023-04-03T11:44:45.222Z,15.62
2023-04-03T11:45:45.205Z,15.79
2023-04-03T11:46:45.257Z,15.91
2023-04-03T11:47:45.240Z,15.98
2023-04-03T11:48:45.166Z,15.95
2023-04-03T11:49:45.157Z,15.95
2023-04-03T11:50:45.287Z,16.01
2023-04-03T11:51:45.132Z,16.01
2023-04-03T11:52:45.135Z,15.98
2023-04-03T11:53:45.239Z,15.95
2023-04-03T11:54:45.760Z,15.92
2023-04-03T11:55:45.208Z,15.88
2023-04-03T11:56:45.187Z,15.84
2023-04-03T11:57:45.164Z,15.77
2023-04-03T11:58:45.196Z,15.75
2023-04-03T11:59:45.137Z,15.83
2023-04-03T12:00:45.184Z,15.94
2023-04-03T12:01:45.047Z,16.05
2023-04-03T12:02:53.865Z,16.20
2023-04-03T12:03:46.045Z,16.33
2023-04-03T12:04:44.975Z,16.49
2023-04-03T12:05:44.978Z,16.61
2023-04-03T12:06:44.924Z,16.61
2023-04-03T12:07:44.917Z,16.56
2023-04-03T12:08:44.902Z,16.49
2023-04-03T12:09:44.921Z,16.41
2023-04-03T12:10:44.878Z,16.46
2023-04-03T12:11:44.867Z,16.53
2023-04-03T12:12:44.858Z,16.60
2023-04-03T12:13:44.834Z,16.64
2023-04-03T12:14:44.810Z,16.60
2023-04-03T12:15:44.801Z,16.69
2023-04-03T12:16:44.848Z,16.81
2023-04-03T12:17:44.818Z,16.91
2023-04-03T12:18:44.807Z,16.90
2023-04-03T12:19:44.744Z,16.89
2023-04-03T12:20:44.735Z,16.96
2023-04-03T12:21:44.752Z,16.99
2023-04-03T12:22:44.715Z,16.94
2023-04-03T12:23:44.700Z,16.90
2023-04-03T12:24:44.691Z,16.86
2023-04-03T12:25:44.662Z,16.78
2023-04-03T12:26:48.669Z,16.71
2023-04-03T12:27:44.650Z,16.65
2023-04-03T12:28:44.646Z,16.58
2023-04-03T12:29:45.257Z,16.51
2023-04-03T12:30:44.644Z,16.51
2023-04-03T12:31:44.596Z,16.47
2023-04-03T12:32:44.618Z,16.39
2023-04-03T12:33:44.616Z,16.35
2023-04-03T12:34:44.558Z,16.31
2023-04-03T12:35:44.624Z,16.24
2023-04-03T12:36:44.538Z,16.17
2023-04-03T12:37:44.513Z,16.12
2023-04-03T12:38:44.523Z,16.08
2023-04-03T12:39:44.512Z,16.01
2023-04-03T12:40:44.515Z,15.94
2023-04-03T12:41:44.469Z,15.90
2023-04-03T12:42:44.467Z,15.83
2023-04-03T12:43:44.442Z,15.77
2023-04-03T12:44:44.424Z,15.72
2023-04-03T12:45:44.528Z,15.79
2023-04-03T12:46:44.560Z,15.88
2023-04-03T12:47:44.491Z,15.84
2023-04-03T12:48:44.363Z,15.80
2023-04-03T12:49:44.370Z,15.77
2023-04-03T12:50:44.349Z,15.80
2023-04-03T12:51:44.425Z,15.94
2023-04-03T12:52:44.312Z,16.10
2023-04-03T12:53:44.292Z,16.23
2023-04-03T12:54:44.307Z,16.36
2023-04-03T12:55:44.280Z,16.39
2023-04-03T12:56:44.589Z,16.50
2023-04-03T12:57:44.270Z,16.54
2023-04-03T12:58:44.305Z,16.51
2023-04-03T12:59:44.220Z,16.51
2023-04-03T13:00:51.734Z,16.47
2023-04-03T13:01:44.209Z,16.39
2023-04-03T13:02:44.255Z,16.38